Time;durP1;ratioP1;P1;durP2;ratioP2;P2;SDS_P1;SDS_P2;PMS_P1;PMS_P2;Temp;Humidity;BMP_temperature;BMP_pressure;BME280_temperature;BME280_humidity;BME280_pressure;Samples;Min_cycle;Max_cycle;Signal;HPM_P1;HPM_P2
2023/08/17 00:01:31;;;;;;;8.97;6.77;;;;;;;19.14;100.00;98780.41;4980416;28;20236;-59
2023/08/17 00:03:57;;;;;;;7.57;6.53;;;;;;;19.11;100.00;98779.97;4979902;28;20238;-58
2023/08/17 00:06:24;;;;;;;7.70;6.63;;;;;;;19.11;100.00;98779.97;4979430;28;20321;-58
2023/08/17 00:08:52;;;;;;;10.03;6.50;;;;;;;19.07;100.00;98774.28;4980940;28;20219;-58
2023/08/17 00:11:18;;;;;;;11.80;6.90;;;;;;;19.05;100.00;98778.16;4979117;28;20244;-59
2023/08/17 00:13:46;;;;;;;9.50;6.87;;;;;;;19.05;100.00;98778.16;4979255;28;20274;-57
2023/08/17 00:16:13;;;;;;;10.90;6.30;;;;;;;19.06;100.00;98777.94;4977440;28;20240;-57
2023/08/17 00:18:40;;;;;;;11.30;6.63;;;;;;;19.02;100.00;98769.63;4980147;28;20231;-57
2023/08/17 00:21:06;;;;;;;11.93;6.30;;;;;;;19.03;100.00;98773.06;4976353;28;20239;-58
2023/08/17 00:23:33;;;;;;;11.13;6.57;;;;;;;19.00;100.00;98766.38;4980929;28;20232;-59
2023/08/17 00:26:00;;;;;;;9.07;6.30;;;;;;;18.99;100.00;98764.72;4980577;28;20696;-59
2023/08/17 00:28:26;;;;;;;17.10;6.80;;;;;;;18.96;100.00;98773.06;4980505;28;20246;-58
2023/08/17 00:30:54;;;;;;;8.33;6.63;;;;;;;18.92;100.00;98763.88;4985064;28;20256;-59
2023/08/17 00:33:21;;;;;;;7.73;6.60;;;;;;;18.87;100.00;98764.47;4976345;28;20722;-57
2023/08/17 00:35:47;;;;;;;9.63;6.13;;;;;;;18.89;100.00;98765.09;4981735;28;20217;-58
2023/08/17 00:38:14;;;;;;;8.33;6.10;;;;;;;18.90;100.00;98755.34;4979405;28;20595;-59
2023/08/17 00:40:41;;;;;;;12.57;6.50;;;;;;;18.86;100.00;98754.09;4978554;28;20233;-59
2023/08/17 00:43:08;;;;;;;8.70;6.53;;;;;;;18.82;100.00;98748.38;4978051;28;20692;-59
2023/08/17 00:45:36;;;;;;;8.40;5.87;;;;;;;18.79;100.00;98748.78;4981031;28;20243;-59
2023/08/17 00:48:07;;;;;;;9.47;5.63;;;;;;;18.78;100.00;98747.16;4976606;28;20311;-58
2023/08/17 00:50:35;;;;;;;8.63;5.90;;;;;;;18.73;100.00;98739.84;4980217;28;20329;-59
2023/08/17 00:53:03;;;;;;;7.17;5.77;;;;;;;18.69;100.00;98738.63;4978492;28;20243;-59
2023/08/17 00:55:29;;;;;;;9.00;6.00;;;;;;;18.73;100.00;98745.13;4981031;28;20599;-59
2023/08/17 00:57:57;;;;;;;9.93;6.17;;;;;;;18.71;100.00;98738.41;4979838;28;20242;-59
2023/08/17 01:00:25;;;;;;;8.93;6.00;;;;;;;18.76;100.00;98732.53;4978379;28;20695;-59
2023/08/17 01:02:52;;;;;;;14.67;6.33;;;;;;;18.74;100.00;98735.34;4980561;28;20647;-59
2023/08/17 01:05:21;;;;;;;7.50;6.00;;;;;;;18.73;100.00;98734.56;4981720;28;20246;-59
2023/08/17 01:07:48;;;;;;;6.60;5.67;;;;;;;18.71;100.00;98736.59;4977815;28;20310;-59
2023/08/17 01:10:15;;;;;;;15.13;6.53;;;;;;;18.68;100.00;98733.50;4977603;28;20244;-59
2023/08/17 01:12:48;;;;;;;8.57;6.30;;;;;;;18.64;100.00;98727.81;4983389;28;20242;-59
2023/08/17 01:15:18;;;;;;;9.17;5.87;;;;;;;18.64;100.00;98725.19;4982924;28;20238;-59
2023/08/17 01:17:53;;;;;;;8.33;5.47;;;;;;;18.62;100.00;98726.38;4983883;28;20592;-59
2023/08/17 01:20:23;;;;;;;8.77;6.20;;;;;;;18.56;100.00;98728.00;4975237;28;20231;-59
2023/08/17 01:22:53;;;;;;;8.97;5.80;;;;;;;18.53;100.00;98723.97;4982005;28;20248;-59
2023/08/17 01:25:21;;;;;;;8.20;6.23;;;;;;;18.51;100.00;98725.16;4973351;28;20238;-59
2023/08/17 01:27:48;;;;;;;10.97;6.30;;;;;;;18.48;100.00;98722.91;4977516;28;20243;-59
2023/08/17 01:30:17;;;;;;;7.33;5.80;;;;;;;18.45;100.00;98729.44;4979301;28;20238;-59
2023/08/17 01:32:51;;;;;;;6.20;5.60;;;;;;;18.40;100.00;98729.22;4978688;28;21180;-59
2023/08/17 01:35:29;;;;;;;10.30;6.00;;;;;;;18.39;100.00;98732.88;4980851;28;20242;-59
2023/08/17 01:38:04;;;;;;;6.87;5.63;;;;;;;18.36;100.00;98734.06;4976016;28;20237;-58
2023/08/17 01:40:34;;;;;;;6.43;5.73;;;;;;;18.35;100.00;98735.06;4974056;28;20227;-58
2023/08/17 01:43:03;;;;;;;7.57;5.67;;;;;;;18.35;100.00;98735.06;4973602;28;20226;-59
2023/08/17 01:45:30;;;;;;;7.83;5.40;;;;;;;18.32;100.00;98732.03;4992978;28;20227;-58
2023/08/17 01:47:57;;;;;;;8.20;5.57;;;;;;;18.29;100.00;98733.22;4977728;28;20623;-59
2023/08/17 01:50:23;;;;;;;6.60;5.80;;;;;;;18.27;100.00;98740.53;4977424;28;20254;-59
2023/08/17 01:52:51;;;;;;;6.20;5.60;;;;;;;18.28;100.00;98734.22;4978616;28;20258;-58
2023/08/17 01:55:17;;;;;;;6.53;5.60;;;;;;;18.27;100.00;98741.38;4972998;28;20243;-59
2023/08/17 01:57:45;;;;;;;8.63;5.70;;;;;;;18.27;100.00;98748.47;4978159;28;20231;-59
2023/08/17 02:00:13;;;;;;;10.00;6.17;;;;;;;18.21;100.00;98752.72;4975176;28;20235;-59
2023/08/17 02:02:42;;;;;;;7.27;6.10;;;;;;;18.19;100.00;98751.28;4977050;28;20238;-59
2023/08/17 02:05:09;;;;;;;9.50;6.40;;;;;;;18.17;100.00;98745.38;4971798;28;20232;-59
2023/08/17 02:07:37;;;;;;;7.43;6.00;;;;;;;18.16;100.00;98739.28;4977252;28;20278;-59
2023/08/17 02:10:04;;;;;;;7.20;5.60;;;;;;;18.18;100.00;98739.91;4976150;28;20750;-59
2023/08/17 02:12:32;;;;;;;8.17;5.43;;;;;;;18.16;100.00;98739.28;4973290;28;20267;-59
2023/08/17 02:15:00;;;;;;;8.50;6.10;;;;;;;18.12;100.00;98735.41;4974628;28;20699;-59
2023/08/17 02:17:27;;;;;;;7.10;5.97;;;;;;;18.09;100.00;98738.44;4983224;28;20231;-59
2023/08/17 02:19:53;;;;;;;8.37;6.10;;;;;;;18.06;100.00;98733.56;4975802;28;20239;-59
2023/08/17 02:22:20;;;;;;;7.80;5.80;;;;;;;18.07;100.00;98730.69;4981791;28;20758;-57
2023/08/17 02:24:51;;;;;;;11.50;5.97;;;;;;;18.02;100.00;98727.03;4984544;28;20317;-59
2023/08/17 02:27:17;;;;;;;7.77;5.50;;;;;;;17.98;100.00;98732.69;4973981;28;20230;-59
2023/08/17 02:30:12;;;;;;;7.57;5.80;;;;;;;17.97;100.00;98730.25;4975042;28;20390;-59
2023/08/17 02:32:39;;;;;;;7.87;6.27;;;;;;;17.98;100.00;98732.69;4991616;28;20260;-58
2023/08/17 02:35:06;;;;;;;9.40;5.80;;;;;;;17.89;100.00;98725.94;4975857;28;20241;-59
2023/08/17 02:37:33;;;;;;;8.20;6.60;;;;;;;17.87;100.00;98727.16;4981702;28;20242;-58
2023/08/17 02:40:00;;;;;;;7.37;5.57;;;;;;;17.81;100.00;98723.44;4973768;28;20603;-59
2023/08/17 02:42:27;;;;;;;9.30;6.33;;;;;;;17.74;100.00;98728.72;4983516;28;20238;-58
2023/08/17 02:44:54;;;;;;;10.37;6.00;;;;;;;17.75;100.00;98722.41;4974483;28;20237;-59
2023/08/17 02:47:22;;;;;;;8.20;5.70;;;;;;;17.79;100.00;98718.38;4975328;28;20219;-58
2023/08/17 02:49:51;;;;;;;7.40;6.10;;;;;;;17.75;100.00;98716.31;4982454;28;20244;-59
2023/08/17 02:52:17;;;;;;;10.80;6.40;;;;;;;17.72;100.00;98720.16;4975493;28;20685;-59
2023/08/17 02:54:48;;;;;;;7.00;5.90;;;;;;;17.70;100.00;98725.63;4981896;28;20235;-59
2023/08/17 02:57:15;;;;;;;8.30;6.27;;;;;;;17.73;100.00;98734.16;4972029;28;20242;-59
2023/08/17 02:59:41;;;;;;;7.13;5.77;;;;;;;17.71;100.00;98734.38;4982630;28;20235;-58
2023/08/17 03:02:08;;;;;;;7.43;5.63;;;;;;;17.66;100.00;98736.78;4979378;28;20241;-59
2023/08/17 03:04:37;;;;;;;11.10;6.27;;;;;;;17.65;100.00;98730.66;4975791;28;20318;-59
2023/08/17 03:07:03;;;;;;;7.43;6.70;;;;;;;17.68;100.00;98724.19;4980399;28;20314;-57
2023/08/17 03:09:30;;;;;;;8.93;6.10;;;;;;;17.67;100.00;98728.66;4977801;28;20234;-59
2023/08/17 03:11:56;;;;;;;8.60;6.07;;;;;;;17.60;100.00;98711.97;4975174;28;20709;-59
2023/08/17 03:14:23;;;;;;;9.03;6.57;;;;;;;17.60;100.00;98711.16;4979236;28;20302;-59
2023/08/17 03:16:50;;;;;;;11.47;6.57;;;;;;;17.55;100.00;98719.66;4976651;28;20261;-59
2023/08/17 03:19:17;;;;;;;8.90;6.30;;;;;;;17.57;100.00;98717.63;4985257;28;21797;-58
2023/08/17 03:21:45;;;;;;;9.13;6.57;;;;;;;17.55;100.00;98717.00;4977453;28;20242;-59
2023/08/17 03:24:12;;;;;;;8.83;6.30;;;;;;;17.53;100.00;98716.38;4980078;28;20233;-59
2023/08/17 03:26:39;;;;;;;7.17;5.97;;;;;;;17.53;100.00;98708.47;4973544;28;20262;-59
2023/08/17 03:29:09;;;;;;;11.60;6.27;;;;;;;17.44;100.00;98705.19;4975026;28;20257;-58
2023/08/17 03:31:36;;;;;;;8.57;6.57;;;;;;;17.44;100.00;98715.72;5234762;23;20224;-58
2023/08/17 03:34:03;;;;;;;10.20;6.17;;;;;;;17.50;100.00;98709.69;4992866;28;20237;-59
2023/08/17 03:36:30;;;;;;;6.90;6.20;;;;;;;17.49;100.00;98708.06;4994110;28;20237;-58
2023/08/17 03:38:58;;;;;;;7.17;6.07;;;;;;;17.52;100.00;98712.94;5017345;28;20215;-58
2023/08/17 03:41:26;;;;;;;8.13;6.40;;;;;;;17.58;100.00;98710.53;4995341;28;20226;-59
2023/08/17 03:43:52;;;;;;;7.43;6.00;;;;;;;17.60;100.00;98697.97;4981664;28;20687;-59
2023/08/17 03:46:19;;;;;;;9.60;6.23;;;;;;;17.67;100.00;98704.09;4980877;28;20318;-59
2023/08/17 03:48:46;;;;;;;9.23;6.73;;;;;;;17.74;100.00;98704.13;4983857;28;20254;-59
2023/08/17 03:51:12;;;;;;;6.87;6.07;;;;;;;17.76;100.00;98713.50;4979408;28;20242;-59
2023/08/17 03:53:39;;;;;;;10.97;6.53;;;;;;;17.84;100.00;98709.84;4979627;28;20227;-58
2023/08/17 03:56:07;;;;;;;9.03;6.83;;;;;;;17.85;100.00;98708.84;4980600;28;20288;-59
2023/08/17 03:58:34;;;;;;;9.50;6.63;;;;;;;17.93;100.00;98707.88;4983366;28;20238;-56
2023/08/17 04:01:03;;;;;;;7.63;6.57;;;;;;;17.99;100.00;98710.56;4980834;28;20330;-58
2023/08/17 04:03:30;;;;;;;6.53;5.77;;;;;;;18.04;100.00;98709.16;4972660;28;20294;-59
2023/08/17 04:05:57;;;;;;;8.60;6.60;;;;;;;18.08;100.00;98713.84;4985735;28;20224;-58
2023/08/17 04:08:23;;;;;;;9.77;6.60;;;;;;;18.15;100.00;98714.69;4986191;28;20682;-59
2023/08/17 04:10:50;;;;;;;8.47;7.57;;;;;;;18.24;100.00;98715.34;5002092;28;20778;-59
2023/08/17 04:13:18;;;;;;;14.07;7.20;;;;;;;18.28;100.00;98723.66;4983229;28;20238;-58
2023/08/17 04:15:45;;;;;;;20.23;10.70;;;;;;;18.40;100.00;98726.56;4983454;28;20238;-58
2023/08/17 04:18:12;;;;;;;17.73;11.97;;;;;;;18.45;100.00;98732.06;4982489;28;20288;-59
2023/08/17 04:20:39;;;;;;;20.30;11.90;;;;;;;18.40;100.00;98726.56;4986502;28;20253;-59
2023/08/17 04:23:05;;;;;;;16.87;11.63;;;;;;;18.46;100.00;98730.22;4982900;28;20276;-58
2023/08/17 04:25:32;;;;;;;13.63;10.47;;;;;;;18.43;100.00;98731.44;4986428;28;20229;-59
2023/08/17 04:27:59;;;;;;;13.07;9.97;;;;;;;18.46;100.00;98733.69;4981870;28;20315;-57
2023/08/17 04:30:27;;;;;;;12.47;8.50;;;;;;;18.50;100.00;98742.84;4986646;28;20235;-59
2023/08/17 04:32:58;;;;;;;14.20;9.23;;;;;;;18.43;100.00;98745.47;4983028;28;20266;-59
2023/08/17 04:35:25;;;;;;;8.50;7.57;;;;;;;18.45;100.00;98742.63;4984963;28;20243;-59
2023/08/17 04:37:52;;;;;;;9.60;7.33;;;;;;;18.51;100.00;98741.00;4986401;28;20239;-59
2023/08/17 04:40:18;;;;;;;11.70;7.10;;;;;;;18.48;100.00;98744.06;4982502;28;20239;-59
2023/08/17 04:42:45;;;;;;;11.03;7.30;;;;;;;18.54;100.00;98740.63;4986290;28;20760;-59
2023/08/17 04:45:12;;;;;;;10.47;7.60;;;;;;;18.52;100.00;98750.56;4983441;28;20235;-59
2023/08/17 04:47:44;;;;;;;10.63;7.00;;;;;;;18.56;100.00;98746.53;4986208;28;20234;-59
2023/08/17 04:50:12;;;;;;;14.40;7.33;;;;;;;18.56;100.00;98751.81;4982965;28;20238;-59
2023/08/17 04:52:39;;;;;;;11.53;7.30;;;;;;;18.63;100.00;98750.00;4986009;28;20231;-59
2023/08/17 04:55:06;;;;;;;11.57;6.60;;;;;;;18.63;100.00;98752.63;4982756;28;20597;-59
2023/08/17 04:57:33;;;;;;;10.50;7.60;;;;;;;18.67;100.00;98755.69;4985788;28;20231;-58
2023/08/17 05:00:01;;;;;;;7.60;6.60;;;;;;;18.72;100.00;98763.81;4983485;28;20236;-58
2023/08/17 05:02:30;;;;;;;13.23;7.70;;;;;;;18.71;100.00;98755.09;4985420;28;20239;-58
2023/08/17 05:04:58;;;;;;;12.43;8.00;;;;;;;18.73;100.00;98768.09;4982849;28;20253;-58
2023/08/17 05:07:25;;;;;;;9.07;7.80;;;;;;;18.73;100.00;98761.00;4986233;28;20246;-58
2023/08/17 05:09:54;;;;;;;11.83;8.37;;;;;;;18.78;100.00;98762.22;4985356;28;20221;-58
2023/08/17 05:12:21;;;;;;;15.80;8.97;;;;;;;18.85;100.00;98757.75;4979966;28;20257;-58
2023/08/17 05:14:52;;;;;;;13.43;8.93;;;;;;;18.88;100.00;98760.00;4983878;28;20805;-58
2023/08/17 05:17:19;;;;;;;12.03;8.67;;;;;;;18.95;100.00;98755.53;4982700;28;20239;-58
2023/08/17 05:19:51;;;;;;;13.43;8.20;;;;;;;19.05;100.00;98762.28;4985520;28;20689;-58
2023/08/17 05:22:20;;;;;;;12.07;8.77;;;;;;;19.02;100.00;98766.97;4983185;28;20248;-57
2023/08/17 05:24:51;;;;;;;14.37;9.60;;;;;;;19.02;100.00;98772.25;4971959;28;20234;-58
2023/08/17 05:27:19;;;;;;;12.50;9.27;;;;;;;19.12;100.00;98779.78;4981427;28;20645;-57
2023/08/17 05:29:51;;;;;;;16.73;9.50;;;;;;;19.16;100.00;98778.38;4984602;28;20259;-58
2023/08/17 05:32:18;;;;;;;10.00;8.67;;;;;;;19.17;100.00;98780.00;4982724;28;20249;-58
2023/08/17 05:34:53;;;;;;;16.80;10.07;;;;;;;19.18;100.00;98775.50;4983783;28;20301;-58
2023/08/17 05:37:22;;;;;;;18.90;9.77;;;;;;;19.22;100.00;98778.56;4982418;28;20243;-58
2023/08/17 05:39:51;;;;;;;15.57;10.73;;;;;;;19.12;100.00;98781.59;5001548;28;20230;-58
2023/08/17 05:42:17;;;;;;;16.03;10.57;;;;;;;19.21;100.00;98777.75;4981007;28;20243;-58
2023/08/17 05:44:45;;;;;;;15.07;10.30;;;;;;;19.36;100.00;98782.84;4985207;28;20688;-58
2023/08/17 05:47:12;;;;;;;18.37;10.70;;;;;;;19.37;100.00;98781.00;4982701;28;20243;-58
2023/08/17 05:49:39;;;;;;;15.97;10.30;;;;;;;19.35;100.00;98783.03;4986386;28;20239;-58
2023/08/17 05:52:06;;;;;;;14.43;10.23;;;;;;;19.38;100.00;98778.16;4983948;28;20250;-58
2023/08/17 05:54:34;;;;;;;18.07;10.67;;;;;;;19.48;100.00;98780.38;4986556;28;20708;-58
2023/08/17 05:57:01;;;;;;;12.03;9.40;;;;;;;19.60;100.00;98777.94;4983656;28;20316;-59
2023/08/17 05:59:27;;;;;;;15.73;9.43;;;;;;;19.68;100.00;98775.06;4986545;28;20234;-58
2023/08/17 06:01:54;;;;;;;15.33;10.17;;;;;;;19.67;100.00;98776.06;4986341;28;20239;-58
2023/08/17 06:04:20;;;;;;;17.50;10.63;;;;;;;19.61;100.00;98774.25;4983519;28;20239;-58
2023/08/17 06:06:47;;;;;;;14.20;10.27;;;;;;;19.59;100.00;98774.47;4985879;28;20254;-58
2023/08/17 06:09:14;;;;;;;13.50;9.43;;;;;;;19.75;100.00;98775.06;4983759;28;20226;-58
2023/08/17 06:11:42;;;;;;;11.67;9.07;;;;;;;19.61;100.00;98767.13;4985025;28;20329;-58
2023/08/17 06:14:09;;;;;;;12.33;8.93;;;;;;;19.73;100.00;98774.44;4982579;28;20742;-58
2023/08/17 06:16:36;;;;;;;8.77;7.10;;;;;;;19.79;100.00;98773.63;4984970;28;20234;-58
2023/08/17 06:19:03;;;;;;;10.20;8.20;;;;;;;19.74;100.00;98776.88;4983403;28;20696;-57
2023/08/17 06:21:29;;;;;;;10.43;7.57;;;;;;;19.75;100.00;98783.00;4985038;28;20308;-57
2023/08/17 06:23:58;;;;;;;9.57;7.80;;;;;;;19.81;100.00;98787.47;4985286;28;20224;-59
2023/08/17 06:26:25;;;;;;;10.13;7.20;;;;;;;19.96;100.00;98783.81;4983993;28;20691;-58
2023/08/17 06:28:53;;;;;;;10.57;7.30;;;;;;;20.10;100.00;98789.88;4986238;28;20241;-58
2023/08/17 06:31:20;;;;;;;9.67;7.63;;;;;;;20.12;100.00;98791.31;4982280;28;20238;-58
2023/08/17 06:33:46;;;;;;;12.70;8.50;;;;;;;20.17;100.00;98790.66;4985768;28;20239;-58
2023/08/17 06:36:16;;;;;;;15.90;9.83;;;;;;;20.06;100.00;98790.28;4982804;28;20224;-58
2023/08/17 06:38:43;;;;;;;19.60;10.27;;;;;;;20.15;100.00;98796.16;4985722;28;20545;-58
2023/08/17 06:41:09;;;;;;;17.43;10.37;;;;;;;20.13;100.00;98792.94;4981767;28;20620;-58
2023/08/17 06:43:36;;;;;;;11.03;9.17;;;;;;;20.28;100.00;98794.47;4985888;28;20251;-58
2023/08/17 06:46:07;;;;;;;13.43;9.83;;;;;;;20.19;100.00;98792.06;4983095;28;20588;-58
2023/08/17 06:48:33;;;;;;;12.00;9.77;;;;;;;20.19;100.00;98792.06;4986070;28;20235;-58
2023/08/17 06:51:02;;;;;;;13.43;8.67;;;;;;;20.28;100.00;98799.78;4981419;28;20230;-58
2023/08/17 06:53:28;;;;;;;13.53;9.13;;;;;;;20.48;100.00;98807.66;4986496;28;20240;-58
2023/08/17 06:55:55;;;;;;;10.40;8.57;;;;;;;20.73;100.00;98814.88;4985510;28;20237;-59
2023/08/17 06:58:21;;;;;;;11.97;8.27;;;;;;;20.99;100.00;98818.44;4973822;28;20249;-59
2023/08/17 07:00:48;;;;;;;14.30;9.30;;;;;;;21.03;100.00;98807.19;4983700;28;20235;-59
2023/08/17 07:03:16;;;;;;;13.33;8.30;;;;;;;20.99;100.00;98816.59;4979852;28;20980;-59
2023/08/17 07:05:47;;;;;;;12.70;9.13;;;;;;;21.15;100.00;98807.28;4983961;28;20235;-59
2023/08/17 07:08:14;;;;;;;9.10;7.80;;;;;;;21.42;100.00;98811.56;4983036;28;20230;-59
2023/08/17 07:10:41;;;;;;;13.40;8.13;;;;;;;21.70;100.00;98807.69;4985702;28;20242;-58
2023/08/17 07:13:07;;;;;;;12.93;8.80;;;;;;;21.89;100.00;98806.69;4982425;28;20248;-59
2023/08/17 07:15:34;;;;;;;12.13;9.07;;;;;;;22.00;100.00;98802.47;4985705;28;20231;-59
2023/08/17 07:18:00;;;;;;;9.20;7.53;;;;;;;22.29;100.00;98802.75;4980428;28;20238;-58
2023/08/17 07:20:28;;;;;;;9.43;7.53;;;;;;;22.49;100.00;98799.88;4985674;28;20561;-58
2023/08/17 07:22:55;;;;;;;11.70;8.00;;;;;;;22.56;100.00;98805.91;4984981;28;20248;-59
2023/08/17 07:25:21;;;;;;;10.63;7.57;;;;;;;22.53;100.00;98809.03;4982650;28;20225;-59
2023/08/17 07:27:48;;;;;;;10.20;7.07;;;;;;;22.62;100.00;98812.19;4984829;28;20734;-59
2023/08/17 07:30:15;;;;;;;10.40;7.47;;;;;;;22.61;100.00;98805.25;4982473;28;20235;-59
2023/08/17 07:32:41;;;;;;;13.23;8.83;;;;;;;22.49;98.38;98801.72;4982298;28;20232;-59
2023/08/17 07:35:08;;;;;;;16.97;9.00;;;;;;;22.21;100.00;98797.72;4980334;28;20230;-59
2023/08/17 07:37:36;;;;;;;13.90;9.57;;;;;;;22.09;100.00;98808.31;4985952;28;20229;-59
2023/08/17 07:40:04;;;;;;;14.03;8.87;;;;;;;22.20;100.00;98807.56;4985012;28;20234;-59
2023/08/17 07:42:30;;;;;;;11.43;9.10;;;;;;;21.99;100.00;98808.00;4987479;28;20258;-58
2023/08/17 07:44:57;;;;;;;15.73;8.40;;;;;;;22.06;100.00;98806.09;4988048;28;20234;-59
2023/08/17 07:47:25;;;;;;;11.97;8.77;;;;;;;22.09;100.00;98813.63;4985739;28;20238;-59
2023/08/17 07:49:52;;;;;;;13.50;9.00;;;;;;;22.28;100.00;98814.44;4988322;28;20713;-58
2023/08/17 07:52:18;;;;;;;16.10;9.87;;;;;;;22.18;100.00;98814.97;4985933;28;20243;-58
2023/08/17 07:54:52;;;;;;;15.70;10.43;;;;;;;22.01;100.00;98819.25;4988600;28;20284;-59
2023/08/17 07:57:19;;;;;;;14.93;9.90;;;;;;;22.34;100.00;98828.66;4984940;28;20714;-57
2023/08/17 07:59:53;;;;;;;12.33;9.63;;;;;;;22.15;100.00;98831.34;4987485;28;20225;-58
2023/08/17 08:02:20;;;;;;;13.93;10.40;;;;;;;21.99;100.00;98834.59;4983411;28;20740;-58
2023/08/17 08:04:51;;;;;;;13.73;9.97;;;;;;;22.20;100.00;98838.66;4987881;28;20720;-58
2023/08/17 08:07:17;;;;;;;16.93;10.40;;;;;;;22.44;100.00;98852.91;4985340;28;20245;-57
2023/08/17 08:10:10;;;;;;;15.57;9.97;;;;;;;22.30;99.91;98854.06;4985277;28;20247;-57
2023/08/17 08:12:37;;;;;;;14.60;9.93;;;;;;;22.40;100.00;98851.72;4986807;28;20230;-58
2023/08/17 08:15:05;;;;;;;15.33;9.60;;;;;;;22.61;100.00;98842.50;4985532;28;20252;-58
2023/08/17 08:17:31;;;;;;;10.47;9.03;;;;;;;22.74;98.99;98846.03;4986598;28;20689;-58
2023/08/17 08:19:58;;;;;;;13.37;9.73;;;;;;;22.62;97.86;98846.78;4984830;28;20230;-58
2023/08/17 08:22:25;;;;;;;16.50;10.67;;;;;;;22.61;97.85;98834.50;4987530;28;20611;-57
2023/08/17 08:24:51;;;;;;;12.73;9.70;;;;;;;22.66;99.77;98837.31;4987920;28;20226;-58
2023/08/17 08:27:20;;;;;;;11.37;9.50;;;;;;;22.90;97.90;98831.25;4985041;28;20699;-58
2023/08/17 08:29:51;;;;;;;12.70;8.87;;;;;;;23.10;97.60;98830.97;4987444;28;20230;-58
2023/08/17 08:32:17;;;;;;;13.93;9.53;;;;;;;23.27;95.85;98831.97;4982370;28;20251;-60
2023/08/17 08:34:48;;;;;;;13.23;9.27;;;;;;;23.38;93.47;98838.34;4987036;28;20239;-57
2023/08/17 08:37:15;;;;;;;12.20;10.13;;;;;;;23.24;92.97;98826.28;4981637;28;20600;-57
2023/08/17 08:39:52;;;;;;;16.17;10.83;;;;;;;23.10;95.75;98830.97;4987148;28;20227;-58
2023/08/17 08:42:21;;;;;;;14.70;10.93;;;;;;;23.25;93.01;98843.91;4985107;28;20592;-58
2023/08/17 08:44:51;;;;;;;13.40;10.13;;;;;;;23.57;92.18;98844.38;4987836;28;20246;-57
2023/08/17 08:47:19;;;;;;;13.53;9.43;;;;;;;23.57;91.99;98840.91;4982316;28;20231;-58
2023/08/17 08:49:59;;;;;;;15.97;11.07;;;;;;;23.54;92.15;98846.69;4986863;28;20232;-57
2023/08/17 08:52:34;;;;;;;14.47;9.73;;;;;;;23.57;90.96;98849.72;4985004;28;20242;-58
2023/08/17 08:55:07;;;;;;;14.17;10.93;;;;;;;23.57;91.97;98854.22;4983878;28;20331;-58
2023/08/17 08:57:36;;;;;;;15.80;9.87;;;;;;;23.46;92.73;98855.84;4987320;28;20225;-58
2023/08/17 09:00:04;;;;;;;15.17;9.93;;;;;;;23.72;91.42;98859.13;4985093;28;20282;-58
2023/08/17 09:02:31;;;;;;;11.07;9.17;;;;;;;23.84;90.99;98862.59;4985509;28;20242;-58
2023/08/17 09:04:58;;;;;;;9.67;8.43;;;;;;;23.85;91.95;98866.84;4986370;28;20317;-58
2023/08/17 09:07:25;;;;;;;10.57;8.93;;;;;;;23.91;89.26;98864.31;4986119;28;20242;-58
2023/08/17 09:09:52;;;;;;;14.63;10.43;;;;;;;23.14;97.39;98856.09;4987251;28;20230;-58
2023/08/17 09:12:19;;;;;;;15.20;10.73;;;;;;;23.67;91.27;98859.00;4983614;28;20262;-56
2023/08/17 09:14:53;;;;;;;16.73;11.30;;;;;;;23.22;93.26;98850.44;4987214;28;20243;-58
2023/08/17 09:17:24;;;;;;;19.00;10.00;;;;;;;23.64;92.38;98857.59;4974545;28;20239;-58
2023/08/17 09:19:51;;;;;;;16.07;11.77;;;;;;;23.23;95.01;98861.94;4986496;28;20238;-58
2023/08/17 09:22:23;;;;;;;12.67;10.73;;;;;;;23.77;90.80;98853.06;4984515;28;20245;-58
2023/08/17 09:24:51;;;;;;;16.37;11.20;;;;;;;23.89;91.18;98849.34;4987031;28;20293;-58
2023/08/17 09:27:18;;;;;;;15.97;11.40;;;;;;;24.38;86.91;98850.94;4984360;28;20679;-58
2023/08/17 09:29:48;;;;;;;14.27;10.50;;;;;;;24.07;88.65;98842.28;4987149;28;20315;-58
2023/08/17 09:32:17;;;;;;;14.00;10.87;;;;;;;24.27;88.29;98839.25;4980995;28;20231;-58
2023/08/17 09:34:45;;;;;;;13.70;9.67;;;;;;;24.48;86.32;98834.31;4986545;28;20235;-59
2023/08/17 09:37:12;;;;;;;12.27;9.37;;;;;;;24.41;87.29;98836.31;4983617;28;20232;-58
2023/08/17 09:39:39;;;;;;;14.23;10.10;;;;;;;24.44;88.00;98834.00;4986854;28;20561;-58
2023/08/17 09:42:06;;;;;;;15.80;10.90;;;;;;;24.18;89.16;98838.00;4975779;28;20230;-57
2023/08/17 09:44:35;;;;;;;16.27;10.67;;;;;;;23.97;88.08;98834.88;4986406;28;20243;-57
2023/08/17 09:47:02;;;;;;;14.33;10.27;;;;;;;23.87;90.17;98835.44;4989988;23;20226;-54
2023/08/17 09:49:33;;;;;;;14.00;10.77;;;;;;;23.27;92.96;98833.81;4980509;28;20246;-53
2023/08/17 09:52:01;;;;;;;18.40;10.97;;;;;;;23.72;91.99;98840.47;4973994;28;20630;-54
2023/08/17 09:54:31;;;;;;;14.40;10.10;;;;;;;23.94;91.71;98830.00;4980440;28;20318;-52
2023/08/17 09:56:58;;;;;;;16.03;10.80;;;;;;;23.80;90.93;98833.97;4975633;28;20229;-53
2023/08/17 09:59:25;;;;;;;14.77;11.27;;;;;;;23.76;91.10;98830.97;4979276;28;20585;-54
2023/08/17 10:01:52;;;;;;;13.40;10.77;;;;;;;23.85;90.44;98832.19;4977618;28;20606;-53
2023/08/17 10:04:23;;;;;;;14.37;11.57;;;;;;;23.81;88.87;98831.06;4974977;28;20225;-54
2023/08/17 10:06:57;;;;;;;15.90;10.93;;;;;;;24.09;89.23;98828.75;4976873;28;20655;-53
2023/08/17 10:09:26;;;;;;;13.70;10.40;;;;;;;23.79;92.11;98837.66;4975443;28;20289;-54
2023/08/17 10:11:55;;;;;;;15.80;10.47;;;;;;;23.86;91.34;98843.69;4978890;28;20568;-54
2023/08/17 10:14:27;;;;;;;12.00;9.67;;;;;;;23.62;91.70;98838.34;4974573;28;20235;-54
2023/08/17 10:17:02;;;;;;;15.37;10.50;;;;;;;23.32;93.69;98841.13;4977381;28;20230;-54
2023/08/17 10:19:38;;;;;;;12.40;9.67;;;;;;;23.46;93.03;98850.53;4975925;28;20290;-54
2023/08/17 10:22:13;;;;;;;13.67;9.30;;;;;;;23.78;92.14;98849.38;4974678;28;20231;-54
2023/08/17 10:24:41;;;;;;;14.67;10.30;;;;;;;24.23;89.89;98854.13;4976922;28;20234;-53
2023/08/17 10:27:08;;;;;;;14.80;9.97;;;;;;;24.25;89.87;98861.88;4975230;28;20243;-52
2023/08/17 10:29:37;;;;;;;10.70;8.50;;;;;;;24.45;89.79;98858.78;4978088;28;20246;-54
2023/08/17 10:32:04;;;;;;;12.83;9.53;;;;;;;24.70;86.97;98845.16;4971945;28;20234;-54
2023/08/17 10:34:31;;;;;;;13.03;9.47;;;;;;;25.09;83.87;98854.41;4979313;28;20233;-53
2023/08/17 10:37:00;;;;;;;15.30;10.30;;;;;;;25.22;81.84;98858.63;4978675;28;20238;-54
2023/08/17 10:39:29;;;;;;;14.20;9.53;;;;;;;25.18;82.36;98851.09;4977155;28;20609;-52
2023/08/17 10:41:57;;;;;;;14.63;10.17;;;;;;;25.06;81.19;98856.50;4974317;28;20234;-54
2023/08/17 10:44:41;;;;;;;13.83;10.80;;;;;;;24.90;82.98;98846.63;4966780;28;21060;-51
2023/08/17 10:47:23;;;;;;;17.53;10.67;;;;;;;25.09;82.60;98857.06;4973304;28;20261;-52
2023/08/17 10:49:52;;;;;;;18.27;10.10;;;;;;;25.14;81.53;98854.47;4972622;28;20230;-52
2023/08/17 10:52:29;;;;;;;10.00;8.27;;;;;;;25.49;81.63;98864.19;4976281;28;20241;-53
2023/08/17 10:55:00;;;;;;;16.10;9.10;;;;;;;25.47;80.52;98864.41;4977694;28;20701;-54
2023/08/17 10:57:34;;;;;;;11.77;10.00;;;;;;;25.48;80.95;98860.69;4975402;28;20245;-54
2023/08/17 11:00:10;;;;;;;11.57;8.93;;;;;;;25.57;78.96;98862.94;4972784;28;20700;-54
2023/08/17 11:02:38;;;;;;;16.60;10.93;;;;;;;25.49;81.20;98859.63;4977836;28;20315;-54
2023/08/17 11:05:05;;;;;;;15.03;9.30;;;;;;;25.84;80.05;98859.59;4971956;28;20732;-52
2023/08/17 11:07:40;;;;;;;13.37;8.77;;;;;;;26.13;76.39;98860.25;4976882;28;20232;-54
2023/08/17 11:10:13;;;;;;;13.13;9.23;;;;;;;26.13;76.68;98856.78;4973537;28;20657;-52
2023/08/17 11:12:42;;;;;;;12.17;9.80;;;;;;;26.20;75.40;98850.22;4975381;28;20230;-52
2023/08/17 11:15:09;;;;;;;16.23;9.20;;;;;;;26.38;74.54;98845.63;4980088;28;20231;-54
2023/08/17 11:17:36;;;;;;;13.82;8.88;;;;;;;26.44;74.27;98841.16;4978723;28;20234;-54
2023/08/17 11:20:04;;;;;;;15.43;8.70;;;;;;;26.36;75.99;98843.22;4977559;28;20233;-54
2023/08/17 11:22:30;;;;;;;12.33;8.60;;;;;;;26.33;76.02;98829.50;4979427;28;20235;-54
2023/08/17 11:24:59;;;;;;;13.87;9.37;;;;;;;25.70;81.35;98822.53;4981658;28;20237;-53